Time;durP1;ratioP1;P1;durP2;ratioP2;P2;SDS_P1;SDS_P2;PMS_P1;PMS_P2;Temp;Humidity;BMP_temperature;BMP_pressure;BME280_temperature;BME280_humidity;BME280_pressure;Samples;Min_cycle;Max_cycle;Signal;HPM_P1;HPM_P2
2023/07/13 00:02:23;;;;;;;1999.90;999.90;;;17.20;99.90;;;;;;4804733;29;20133;-71
2023/07/13 00:04:50;;;;;;;1999.90;999.90;;;17.10;99.90;;;;;;4806142;29;20125;-70
2023/07/13 00:07:19;;;;;;;1999.90;999.90;;;17.00;99.90;;;;;;4820261;29;20069;-71
2023/07/13 00:09:44;;;;;;;1999.90;999.90;;;17.00;99.90;;;;;;4805513;29;20111;-71
2023/07/13 00:12:30;;;;;;;1999.90;999.90;;;16.90;99.90;;;;;;4806213;29;20055;-71
2023/07/13 00:15:02;;;;;;;1999.90;999.90;;;16.90;99.90;;;;;;4805271;29;20447;-71
2023/07/13 00:17:28;;;;;;;1999.90;999.90;;;16.80;99.90;;;;;;4805328;29;20047;-71
2023/07/13 00:19:56;;;;;;;1999.90;999.90;;;16.80;99.90;;;;;;4806315;29;20059;-71
2023/07/13 00:22:23;;;;;;;1999.90;999.90;;;16.70;99.90;;;;;;4806027;29;20046;-71
2023/07/13 00:24:51;;;;;;;1999.90;999.90;;;16.70;99.90;;;;;;4806240;29;20058;-70
2023/07/13 00:27:17;;;;;;;1999.90;999.90;;;16.70;99.90;;;;;;4806616;29;20405;-71
2023/07/13 00:29:43;;;;;;;1999.90;999.90;;;16.60;99.90;;;;;;4820513;29;20047;-71
2023/07/13 00:32:09;;;;;;;1999.90;999.90;;;16.60;99.90;;;;;;4805393;29;20054;-71
2023/07/13 00:34:35;;;;;;;1999.90;999.90;;;16.60;99.90;;;;;;4806496;29;20051;-71
2023/07/13 00:37:01;;;;;;;1999.90;999.90;;;16.60;99.90;;;;;;4806203;29;20051;-71
2023/07/13 00:39:27;;;;;;;1999.90;999.90;;;16.50;99.90;;;;;;4806395;29;20062;-71
2023/07/13 00:41:53;;;;;;;1999.90;999.90;;;16.50;99.90;;;;;;4820043;29;20058;-71
2023/07/13 00:44:23;;;;;;;1999.90;999.90;;;16.50;99.90;;;;;;4815092;29;20055;-71
2023/07/13 00:46:48;;;;;;;1999.90;999.90;;;16.50;99.90;;;;;;4822796;29;20437;-71
2023/07/13 00:49:18;;;;;;;1999.90;999.90;;;16.40;99.90;;;;;;4824129;29;20065;-71
2023/07/13 00:51:46;;;;;;;1999.90;999.90;;;16.40;99.90;;;;;;4824264;29;20437;-70
2023/07/13 00:54:17;;;;;;;1999.90;999.90;;;16.40;99.90;;;;;;4822472;29;20134;-71
2023/07/13 00:56:46;;;;;;;1999.90;999.90;;;16.40;99.90;;;;;;4826690;29;20410;-71
2023/07/13 00:59:15;;;;;;;1999.90;999.90;;;16.40;99.90;;;;;;4825898;29;20051;-70
2023/07/13 01:01:41;;;;;;;1999.90;999.90;;;16.40;99.90;;;;;;4841076;29;20566;-71
2023/07/13 01:04:07;;;;;;;1999.90;999.90;;;16.40;99.90;;;;;;4826011;29;20039;-71
2023/07/13 01:06:39;;;;;;;1999.90;999.90;;;16.40;99.90;;;;;;4827308;29;20054;-71
2023/07/13 01:09:08;;;;;;;1999.90;999.90;;;16.40;99.90;;;;;;4827384;29;20436;-71
2023/07/13 01:11:34;;;;;;;1999.90;999.90;;;16.40;99.90;;;;;;4817491;29;20514;-71
2023/07/13 01:14:01;;;;;;;1999.90;999.90;;;16.40;99.90;;;;;;4819087;29;20130;-71
2023/07/13 01:16:29;;;;;;;1999.90;999.90;;;16.40;99.90;;;;;;4838673;29;20054;-70
2023/07/13 01:19:00;;;;;;;1999.90;999.90;;;16.40;99.90;;;;;;4809186;29;20047;-71
2023/07/13 01:21:27;;;;;;;1999.90;999.90;;;16.50;99.90;;;;;;4808042;29;20054;-71
2023/07/13 01:23:53;;;;;;;1999.90;999.90;;;16.40;99.90;;;;;;4807358;29;20496;-70
2023/07/13 01:26:19;;;;;;;1999.90;999.90;;;16.50;99.90;;;;;;4808714;29;20117;-71
2023/07/13 01:28:44;;;;;;;1999.90;999.90;;;16.50;99.90;;;;;;4809218;29;20043;-71
2023/07/13 01:31:10;;;;;;;1999.90;999.90;;;16.50;99.90;;;;;;4809040;29;20111;-71
2023/07/13 01:33:40;;;;;;;1999.90;999.90;;;16.50;99.90;;;;;;4807196;29;20070;-71
2023/07/13 01:36:10;;;;;;;1999.90;999.90;;;16.50;99.90;;;;;;4808571;29;20046;-71
2023/07/13 01:38:36;;;;;;;1999.90;999.90;;;16.50;99.90;;;;;;4808201;29;20461;-71
2023/07/13 01:41:03;;;;;;;1999.90;999.90;;;16.50;99.90;;;;;;4807572;29;20139;-71
2023/07/13 01:43:29;;;;;;;1999.90;999.90;;;16.50;99.90;;;;;;4808530;29;20055;-71
2023/07/13 01:45:55;;;;;;;1999.90;999.90;;;16.50;99.90;;;;;;4807534;29;20046;-71
2023/07/13 01:48:20;;;;;;;1999.90;999.90;;;16.50;99.90;;;;;;4808135;29;20380;-71
2023/07/13 01:50:47;;;;;;;1999.90;999.90;;;16.50;99.90;;;;;;4807539;29;20055;-71
2023/07/13 01:53:13;;;;;;;1999.90;999.90;;;16.60;99.90;;;;;;4808423;29;20050;-71
2023/07/13 01:55:39;;;;;;;1999.90;999.90;;;16.60;99.90;;;;;;4807886;29;20047;-71
2023/07/13 01:58:06;;;;;;;1999.90;999.90;;;16.60;99.90;;;;;;4808615;29;20404;-71
2023/07/13 02:00:32;;;;;;;1999.90;999.90;;;16.60;99.90;;;;;;4807530;29;20502;-71
2023/07/13 02:02:58;;;;;;;1999.90;999.90;;;16.60;99.90;;;;;;4791764;29;20457;-71
2023/07/13 02:05:24;;;;;;;1999.90;999.90;;;16.60;99.90;;;;;;4808311;29;20039;-71
2023/07/13 02:07:50;;;;;;;1999.90;999.90;;;16.60;99.90;;;;;;4821324;29;20061;-71
2023/07/13 02:10:16;;;;;;;1999.90;999.90;;;16.60;99.90;;;;;;4808191;29;20404;-71
2023/07/13 02:12:42;;;;;;;1999.90;999.90;;;16.60;99.90;;;;;;4807132;29;20061;-71
2023/07/13 02:15:09;;;;;;;1999.90;999.90;;;16.60;99.90;;;;;;4808201;29;20082;-70
2023/07/13 02:17:35;;;;;;;1999.90;999.90;;;16.60;99.90;;;;;;4808128;29;20073;-70
2023/07/13 02:20:02;;;;;;;1999.90;999.90;;;16.60;99.90;;;;;;4808106;29;20058;-70
2023/07/13 02:22:28;;;;;;;1999.90;999.90;;;16.60;99.90;;;;;;4808117;29;20412;-71
2023/07/13 02:24:53;;;;;;;1999.90;999.90;;;16.60;99.90;;;;;;4807765;29;20050;-71
2023/07/13 02:27:19;;;;;;;1999.90;999.90;;;16.60;99.90;;;;;;4822178;29;20138;-70
2023/07/13 02:29:45;;;;;;;1999.90;999.90;;;16.60;99.90;;;;;;4807858;29;20046;-70
2023/07/13 02:32:10;;;;;;;1999.90;999.90;;;16.60;99.90;;;;;;4807827;29;20133;-71
2023/07/13 02:34:36;;;;;;;1999.90;999.90;;;16.60;99.90;;;;;;4836912;29;20055;-71
2023/07/13 02:37:02;;;;;;;1999.90;999.90;;;16.60;99.90;;;;;;4806560;29;20185;-70
2023/07/13 02:39:28;;;;;;;1999.90;999.90;;;16.60;99.90;;;;;;4821675;29;20055;-70
2023/07/13 02:41:54;;;;;;;1999.90;999.90;;;16.60;99.90;;;;;;4807847;29;20534;-70
2023/07/13 02:44:19;;;;;;;1999.90;999.90;;;16.60;99.90;;;;;;4821569;29;20063;-71
2023/07/13 02:46:45;;;;;;;1999.90;999.90;;;16.60;99.90;;;;;;4806330;29;20057;-70
2023/07/13 02:49:11;;;;;;;1999.90;999.90;;;16.60;99.90;;;;;;4807706;29;20058;-70
2023/07/13 02:51:36;;;;;;;1999.90;999.90;;;16.60;99.90;;;;;;4806668;29;20544;-71
2023/07/13 02:54:03;;;;;;;1999.90;999.90;;;16.60;99.90;;;;;;4807155;29;20051;-70
2023/07/13 02:56:31;;;;;;;1999.90;999.90;;;16.60;99.90;;;;;;4807294;29;20101;-70
2023/07/13 02:58:57;;;;;;;1999.90;999.90;;;16.70;99.90;;;;;;4807537;29;20054;-71
2023/07/13 03:01:24;;;;;;;1999.90;999.90;;;16.70;99.90;;;;;;4807894;29;20055;-70
2023/07/13 03:03:51;;;;;;;1999.90;999.90;;;16.70;99.90;;;;;;4787628;30;20508;-71
2023/07/13 03:06:18;;;;;;;1999.90;999.90;;;16.70;99.90;;;;;;4816760;29;20403;-70
2023/07/13 03:08:45;;;;;;;1999.90;999.90;;;16.70;99.90;;;;;;4807170;29;20106;-70
2023/07/13 03:11:14;;;;;;;1999.90;999.90;;;16.60;99.90;;;;;;4805982;29;20055;-70
2023/07/13 03:13:41;;;;;;;1999.90;999.90;;;16.60;99.90;;;;;;4807217;29;20094;-70
2023/07/13 03:16:07;;;;;;;1999.90;999.90;;;16.60;99.90;;;;;;4805613;29;20054;-70
2023/07/13 03:18:34;;;;;;;1999.90;999.90;;;16.60;99.90;;;;;;4806833;29;20118;-70
2023/07/13 03:20:59;;;;;;;1999.90;999.90;;;16.60;99.90;;;;;;4805895;29;20449;-70
2023/07/13 03:23:25;;;;;;;1999.90;999.90;;;16.60;99.90;;;;;;4806978;29;20146;-70
2023/07/13 03:26:05;;;;;;;1999.90;999.90;;;16.60;99.90;;;;;;4806752;29;20092;-71
2023/07/13 03:28:31;;;;;;;1999.90;999.90;;;16.60;99.90;;;;;;4806042;29;20062;-70
2023/07/13 03:31:05;;;;;;;1999.90;999.90;;;16.60;99.90;;;;;;4805568;29;20523;-71
2023/07/13 03:33:31;;;;;;;1999.90;999.90;;;16.60;99.90;;;;;;4806220;29;20062;-70
2023/07/13 03:35:57;;;;;;;1999.90;999.90;;;16.60;99.90;;;;;;4806156;29;20046;-70
2023/07/13 03:38:23;;;;;;;1999.90;999.90;;;16.60;99.90;;;;;;4821137;29;20043;-70
2023/07/13 03:40:49;;;;;;;1999.90;999.90;;;16.50;99.90;;;;;;4806680;29;20172;-70
2023/07/13 03:43:15;;;;;;;1999.90;999.90;;;16.50;99.90;;;;;;4805489;29;20168;-70
2023/07/13 03:45:40;;;;;;;1999.90;999.90;;;16.50;99.90;;;;;;4806226;29;20075;-70
2023/07/13 03:48:06;;;;;;;1999.90;999.90;;;16.50;99.90;;;;;;4806818;29;20474;-70
2023/07/13 03:50:32;;;;;;;1999.90;999.90;;;16.50;99.90;;;;;;4806179;29;20069;-70
2023/07/13 03:53:00;;;;;;;1999.90;999.90;;;16.50;99.90;;;;;;4820689;29;20085;-70
2023/07/13 03:55:26;;;;;;;1999.90;999.90;;;16.50;99.90;;;;;;4805111;29;20051;-70
2023/07/13 03:57:58;;;;;;;1999.90;999.90;;;16.50;99.90;;;;;;4790596;29;20058;-70
2023/07/13 04:00:24;;;;;;;1999.90;999.90;;;16.50;99.90;;;;;;4806784;29;20057;-71
2023/07/13 04:02:51;;;;;;;1999.90;999.90;;;16.50;99.90;;;;;;4805829;29;20051;-70
2023/07/13 04:05:17;;;;;;;1999.90;999.90;;;16.50;99.90;;;;;;4805162;29;20054;-70
2023/07/13 04:07:42;;;;;;;1999.90;999.90;;;16.50;99.90;;;;;;4806237;29;20058;-71
2023/07/13 04:10:08;;;;;;;1999.90;999.90;;;16.50;99.90;;;;;;4806461;29;20445;-71
2023/07/13 04:12:34;;;;;;;1999.90;999.90;;;16.50;99.90;;;;;;4790503;29;20059;-70
2023/07/13 04:15:00;;;;;;;1999.90;999.90;;;16.50;99.90;;;;;;4805251;29;20050;-70
2023/07/13 04:17:26;;;;;;;1999.90;999.90;;;16.50;99.90;;;;;;4804825;29;20051;-71
2023/07/13 04:19:51;;;;;;;1999.90;999.90;;;16.50;99.90;;;;;;4821067;29;20050;-71
2023/07/13 04:22:17;;;;;;;1999.90;999.90;;;16.50;99.90;;;;;;4820507;29;20449;-70
2023/07/13 04:24:43;;;;;;;1999.90;999.90;;;16.50;99.90;;;;;;4820413;29;20043;-70
2023/07/13 04:27:09;;;;;;;1999.90;999.90;;;16.50;99.90;;;;;;4806129;29;20384;-71
2023/07/13 04:29:35;;;;;;;1999.90;999.90;;;16.50;99.90;;;;;;4805517;29;20066;-70
2023/07/13 04:32:01;;;;;;;1999.90;999.90;;;16.50;99.90;;;;;;4808529;29;20317;-71
2023/07/13 04:34:26;;;;;;;1999.90;999.90;;;16.50;99.90;;;;;;4809739;29;20055;-71
2023/07/13 04:36:52;;;;;;;1999.90;999.90;;;16.50;99.90;;;;;;4808700;29;20134;-71
2023/07/13 04:39:18;;;;;;;1999.90;999.90;;;16.50;99.90;;;;;;4809872;29;20055;-70
2023/07/13 04:41:43;;;;;;;1999.90;999.90;;;16.40;99.90;;;;;;4809639;29;20058;-70
2023/07/13 04:44:09;;;;;;;1999.90;999.90;;;16.40;99.90;;;;;;4809605;29;20528;-71
2023/07/13 04:46:35;;;;;;;1999.90;999.90;;;16.40;99.90;;;;;;4808985;29;20062;-70
2023/07/13 04:49:00;;;;;;;1999.90;999.90;;;16.40;99.90;;;;;;4793496;29;20066;-71
2023/07/13 04:51:26;;;;;;;1999.90;999.90;;;16.40;99.90;;;;;;4823235;29;20184;-71
2023/07/13 04:53:52;;;;;;;1999.90;999.90;;;16.50;99.90;;;;;;4827535;29;20492;-70
2023/07/13 04:56:19;;;;;;;1999.90;999.90;;;16.50;99.90;;;;;;4826943;29;20103;-70
2023/07/13 04:58:45;;;;;;;1999.90;999.90;;;16.50;99.90;;;;;;4827268;29;20583;-70
2023/07/13 05:01:11;;;;;;;1999.90;999.90;;;16.50;99.90;;;;;;4826029;29;20054;-70
2023/07/13 05:03:37;;;;;;;1999.90;999.90;;;16.50;99.90;;;;;;4826651;29;20419;-70
2023/07/13 05:06:11;;;;;;;1999.90;999.90;;;16.50;99.90;;;;;;4826226;29;20120;-70
2023/07/13 05:08:37;;;;;;;1999.90;999.90;;;16.50;99.90;;;;;;4827281;29;20050;-70
2023/07/13 05:11:05;;;;;;;1999.90;999.90;;;16.60;99.90;;;;;;4825728;29;20543;-70
2023/07/13 05:13:31;;;;;;;1999.90;999.90;;;16.60;99.90;;;;;;4827179;29;20057;-70
2023/07/13 05:16:05;;;;;;;1999.90;999.90;;;16.60;99.90;;;;;;4826597;29;20047;-71
2023/07/13 05:18:31;;;;;;;1999.90;999.90;;;16.60;99.90;;;;;;4825807;29;20109;-71
2023/07/13 05:21:02;;;;;;;1999.90;999.90;;;16.60;99.90;;;;;;4826003;29;20131;-70
2023/07/13 05:23:30;;;;;;;1999.90;999.90;;;16.70;99.90;;;;;;4827170;29;20050;-70
2023/07/13 05:25:56;;;;;;;1999.90;999.90;;;16.70;99.90;;;;;;4825908;29;20179;-70
2023/07/13 05:28:22;;;;;;;1999.90;999.90;;;16.70;99.90;;;;;;4825793;29;20511;-70
2023/07/13 05:30:48;;;;;;;1999.90;999.90;;;16.70;99.90;;;;;;4825848;29;20062;-70
2023/07/13 05:33:14;;;;;;;1999.90;999.90;;;16.80;99.90;;;;;;4825506;29;20516;-70
2023/07/13 05:35:40;;;;;;;1999.90;999.90;;;16.80;99.90;;;;;;4825515;29;20058;-70
2023/07/13 05:38:06;;;;;;;1999.90;999.90;;;16.90;99.90;;;;;;4825501;29;20061;-70
2023/07/13 05:40:32;;;;;;;1999.90;999.90;;;16.90;99.90;;;;;;4826483;29;20407;-70
2023/07/13 05:42:58;;;;;;;1999.90;999.90;;;17.00;99.90;;;;;;4825481;29;20059;-70
2023/07/13 05:45:23;;;;;;;1999.90;999.90;;;17.00;99.90;;;;;;4826486;29;20103;-70
2023/07/13 05:47:49;;;;;;;1999.90;999.90;;;17.00;99.90;;;;;;4826415;29;20062;-71
2023/07/13 05:50:15;;;;;;;1999.90;999.90;;;17.00;99.90;;;;;;4825364;29;20058;-71
2023/07/13 05:52:41;;;;;;;1999.90;999.90;;;17.00;99.90;;;;;;4826751;29;20088;-71
2023/07/13 05:55:07;;;;;;;1999.90;999.90;;;17.00;99.90;;;;;;4826532;29;20051;-70
2023/07/13 05:57:32;;;;;;;1999.90;999.90;;;17.10;99.90;;;;;;4812788;29;20583;-71
2023/07/13 05:59:58;;;;;;;1999.90;999.90;;;17.10;99.90;;;;;;4807513;29;20054;-70
2023/07/13 06:02:24;;;;;;;1999.90;999.90;;;17.10;99.90;;;;;;4824087;29;20073;-71
2023/07/13 06:04:49;;;;;;;1999.90;999.90;;;17.10;99.90;;;;;;4826872;29;20532;-71
2023/07/13 06:07:15;;;;;;;1999.90;999.90;;;17.10;99.90;;;;;;4825049;29;20103;-70
2023/07/13 06:09:41;;;;;;;1999.90;999.90;;;17.20;99.90;;;;;;4825981;29;20054;-70
2023/07/13 06:12:07;;;;;;;1999.90;999.90;;;17.20;99.90;;;;;;4824672;29;20491;-71
2023/07/13 06:14:33;;;;;;;1999.90;999.90;;;17.20;99.90;;;;;;4825944;29;20159;-70
2023/07/13 06:16:58;;;;;;;1999.90;999.90;;;17.30;99.90;;;;;;4824871;29;20150;-70
2023/07/13 06:19:24;;;;;;;1999.90;999.90;;;17.30;99.90;;;;;;4825799;29;20051;-70
2023/07/13 06:21:50;;;;;;;1999.90;999.90;;;17.30;99.90;;;;;;4824808;29;20076;-70
2023/07/13 06:24:15;;;;;;;1999.90;999.90;;;17.30;99.90;;;;;;4825031;29;20142;-70
2023/07/13 06:26:41;;;;;;;1999.90;999.90;;;17.40;99.90;;;;;;4824775;29;20054;-71
2023/07/13 06:29:07;;;;;;;1999.90;999.90;;;17.40;99.90;;;;;;4824832;29;20050;-70
2023/07/13 06:31:32;;;;;;;1999.90;999.90;;;17.50;99.90;;;;;;4825568;29;20050;-70
2023/07/13 06:33:58;;;;;;;1999.90;999.90;;;17.50;99.90;;;;;;4825444;29;20111;-71
2023/07/13 06:36:24;;;;;;;1999.90;999.90;;;17.50;99.90;;;;;;4839709;29;20129;-70
2023/07/13 06:38:50;;;;;;;1999.90;999.90;;;17.50;99.90;;;;;;4819517;29;20058;-70
2023/07/13 06:41:15;;;;;;;1999.90;999.90;;;17.60;99.90;;;;;;4806635;29;20080;-70
2023/07/13 06:43:41;;;;;;;1999.90;999.90;;;17.60;99.90;;;;;;4807251;29;20134;-70
2023/07/13 06:46:07;;;;;;;1999.90;999.90;;;17.60;99.90;;;;;;4807428;29;20118;-72
2023/07/13 06:48:33;;;;;;;1999.90;999.90;;;17.70;99.90;;;;;;4806018;29;20495;-70
2023/07/13 06:50:59;;;;;;;1999.90;999.90;;;17.70;99.90;;;;;;4807592;29;20057;-70
2023/07/13 06:53:24;;;;;;;1999.90;999.90;;;17.70;99.90;;;;;;4790869;29;20082;-70
2023/07/13 06:55:51;;;;;;;1999.90;999.90;;;17.70;99.90;;;;;;4807264;29;20381;-71
2023/07/13 06:58:18;;;;;;;1999.90;999.90;;;17.80;99.90;;;;;;4806091;29;20116;-71
2023/07/13 07:00:44;;;;;;;1999.90;999.90;;;17.90;99.90;;;;;;4807325;29;20054;-71
2023/07/13 07:03:09;;;;;;;1999.90;999.90;;;17.90;99.90;;;;;;4806927;29;20065;-70
2023/07/13 07:05:35;;;;;;;1999.90;999.90;;;18.00;99.90;;;;;;4807529;29;20047;-71
2023/07/13 07:08:01;;;;;;;1999.90;999.90;;;18.10;99.90;;;;;;4807493;29;20535;-71
2023/07/13 07:10:31;;;;;;;1999.90;999.90;;;18.10;99.90;;;;;;4807195;29;20115;-70
2023/07/13 07:12:57;;;;;;;1999.90;999.90;;;18.20;99.90;;;;;;4807085;29;20046;-73
2023/07/13 07:15:23;;;;;;;1999.90;999.90;;;18.20;99.90;;;;;;4790956;29;20388;-75
2023/07/13 07:17:48;;;;;;;1999.90;999.90;;;18.20;99.90;;;;;;4807209;29;20051;-74
2023/07/13 07:20:14;;;;;;;1999.90;999.90;;;18.30;99.90;;;;;;4806044;29;20050;-74
2023/07/13 07:22:40;;;;;;;1999.90;999.90;;;18.40;99.90;;;;;;4821377;29;20448;-75
2023/07/13 07:25:06;;;;;;;1999.90;999.90;;;18.50;99.90;;;;;;4806966;29;20046;-75
2023/07/13 07:27:32;;;;;;;1999.90;999.90;;;18.60;99.90;;;;;;4805681;29;20055;-73
2023/07/13 07:29:58;;;;;;;1999.90;999.90;;;18.60;99.90;;;;;;4821366;29;20047;-75
2023/07/13 07:32:24;;;;;;;1999.90;999.90;;;18.60;99.90;;;;;;4806345;29;20519;-75
2023/07/13 07:34:50;;;;;;;1999.90;999.90;;;18.60;99.90;;;;;;4790931;29;20047;-74
2023/07/13 07:37:16;;;;;;;1999.90;999.90;;;18.60;99.90;;;;;;4805735;29;20050;-74
2023/07/13 07:39:43;;;;;;;1999.90;999.90;;;18.70;99.90;;;;;;4806894;29;20054;-74
2023/07/13 07:42:09;;;;;;;1999.90;999.90;;;18.80;99.90;;;;;;4806666;29;20062;-74
2023/07/13 07:44:34;;;;;;;1999.90;999.90;;;18.90;99.90;;;;;;4836299;29;20054;-74
2023/07/13 07:47:01;;;;;;;1999.90;999.90;;;19.00;99.90;;;;;;4806604;29;20419;-75
2023/07/13 07:49:27;;;;;;;1999.90;999.90;;;18.90;99.90;;;;;;4805569;29;20058;-74
2023/07/13 07:51:53;;;;;;;1999.90;999.90;;;19.00;99.90;;;;;;4836062;29;20121;-75
2023/07/13 07:54:19;;;;;;;1999.90;999.90;;;19.00;99.90;;;;;;4805332;29;20155;-75
2023/07/13 07:56:44;;;;;;;1999.90;999.90;;;19.00;99.90;;;;;;4806363;29;20081;-75
2023/07/13 07:59:10;;;;;;;1999.90;999.90;;;19.00;99.90;;;;;;4790841;29;20112;-75
2023/07/13 08:01:36;;;;;;;1999.90;999.90;;;19.00;99.90;;;;;;4806557;29;20054;-74
2023/07/13 08:04:02;;;;;;;1999.90;999.90;;;19.00;99.90;;;;;;4789940;29;20140;-75
2023/07/13 08:06:28;;;;;;;1999.90;999.90;;;18.90;99.90;;;;;;4804632;29;20186;-74
2023/07/13 08:08:55;;;;;;;1999.90;999.90;;;18.90;99.90;;;;;;4810361;29;20046;-75
2023/07/13 08:11:21;;;;;;;1999.90;999.90;;;18.90;99.90;;;;;;4813703;29;20067;-74
2023/07/13 08:13:46;;;;;;;1999.90;999.90;;;18.90;99.90;;;;;;4814956;29;20057;-75
2023/07/13 08:16:12;;;;;;;1999.90;999.90;;;18.80;99.90;;;;;;4810665;29;20133;-75
2023/07/13 08:18:38;;;;;;;1999.90;999.90;;;18.80;99.90;;;;;;4814340;29;20046;-75
2023/07/13 08:21:05;;;;;;;1999.90;999.90;;;18.80;99.90;;;;;;4812042;29;20500;-75
2023/07/13 08:23:32;;;;;;;1999.90;999.90;;;18.90;99.90;;;;;;4814151;29;20046;-75
2023/07/13 08:25:58;;;;;;;1999.90;999.90;;;18.90;99.90;;;;;;4814005;29;20445;-74
2023/07/13 08:28:24;;;;;;;1999.90;999.90;;;18.90;99.90;;;;;;4813559;29;20054;-74
2023/07/13 08:30:50;;;;;;;1999.90;999.90;;;19.00;99.90;;;;;;4815160;29;20046;-75
2023/07/13 08:33:20;;;;;;;1999.90;999.90;;;19.00;99.90;;;;;;4813169;29;20490;-75
2023/07/13 08:35:50;;;;;;;1999.90;999.90;;;19.10;99.90;;;;;;4813973;29;20052;-74
2023/07/13 08:38:17;;;;;;;1999.90;999.90;;;19.10;99.90;;;;;;4806847;29;20117;-68
2023/07/13 08:40:44;;;;;;;1999.90;999.90;;;19.10;99.90;;;;;;4819852;29;20150;-71
2023/07/13 08:43:16;;;;;;;1999.90;999.90;;;19.10;99.90;;;;;;4805139;29;20066;-72
2023/07/13 08:46:08;;;;;;;1999.90;999.90;;;19.10;99.90;;;;;;4805170;29;20108;-70
2023/07/13 08:48:36;;;;;;;1999.90;999.90;;;19.20;99.90;;;;;;4803162;29;20058;-69
2023/07/13 08:51:14;;;;;;;1999.90;999.90;;;19.10;99.90;;;;;;4805878;29;20129;-71
2023/07/13 08:53:48;;;;;;;1999.90;999.90;;;19.10;99.90;;;;;;4820762;29;20055;-71
2023/07/13 08:56:21;;;;;;;1999.90;999.90;;;19.10;99.90;;;;;;4806206;29;20043;-70
2023/07/13 08:58:51;;;;;;;1999.90;999.90;;;19.00;99.90;;;;;;4805000;29;20122;-70
2023/07/13 09:01:45;;;;;;;1999.90;999.90;;;19.00;99.90;;;;;;4806206;29;20055;-71
2023/07/13 09:04:43;;;;;;;1999.90;999.90;;;19.00;99.90;;;;;;4806843;29;20051;-72
2023/07/13 09:07:09;;;;;;;1999.90;999.90;;;18.90;99.90;;;;;;4805874;29;20154;-72
2023/07/13 09:09:50;;;;;;;1999.90;999.90;;;19.00;99.90;;;;;;4806254;29;20050;-71
2023/07/13 09:12:24;;;;;;;1999.90;999.90;;;19.00;99.90;;;;;;4820695;29;20094;-72
2023/07/13 09:14:53;;;;;;;1999.90;999.90;;;19.00;99.90;;;;;;4805905;29;20062;-71
2023/07/13 09:17:32;;;;;;;1999.90;999.90;;;19.00;99.90;;;;;;4807000;29;20112;-71
2023/07/13 09:20:05;;;;;;;1999.90;999.90;;;18.90;99.90;;;;;;4809383;29;20100;-71
2023/07/13 09:22:34;;;;;;;1999.90;999.90;;;18.90;99.90;;;;;;4808350;29;20058;-74
2023/07/13 09:25:25;;;;;;;1999.90;999.90;;;18.70;99.90;;;;;;4809291;29;20126;-70
2023/07/13 09:27:55;;;;;;;1999.90;999.90;;;18.60;99.90;;;;;;4799525;29;20071;-70
2023/07/13 09:30:47;;;;;;;1999.90;999.90;;;18.40;99.90;;;;;;4809302;29;20117;-71
2023/07/13 09:33:14;;;;;;;1999.90;999.90;;;18.30;99.90;;;;;;4809140;29;20059;-72
2023/07/13 09:35:40;;;;;;;1999.90;999.90;;;18.10;99.90;;;;;;4807999;29;20103;-71
2023/07/13 09:38:17;;;;;;;1999.90;999.90;;;17.90;99.90;;;;;;4809405;29;20054;-72
2023/07/13 09:40:52;;;;;;;1999.90;999.90;;;17.90;99.90;;;;;;4809555;29;20054;-70
2023/07/13 09:43:20;;;;;;;1999.90;999.90;;;17.90;99.90;;;;;;4809806;29;20051;-71
2023/07/13 09:45:49;;;;;;;1999.90;999.90;;;18.00;99.90;;;;;;4808577;29;20050;-72
2023/07/13 09:48:17;;;;;;;1999.90;999.90;;;18.00;99.90;;;;;;4807916;29;20097;-73
2023/07/13 09:50:44;;;;;;;1999.90;999.90;;;18.10;99.90;;;;;;4792908;29;20133;-73
2023/07/13 09:53:18;;;;;;;1999.90;999.90;;;18.20;99.90;;;;;;4808624;29;20070;-74
2023/07/13 09:55:47;;;;;;;1999.90;999.90;;;18.30;99.90;;;;;;4792641;29;20438;-72
2023/07/13 09:58:17;;;;;;;1999.90;999.90;;;18.40;99.90;;;;;;4809593;29;20062;-73
2023/07/13 10:00:58;;;;;;;1999.90;999.90;;;18.50;99.90;;;;;;4807826;29;20416;-73
2023/07/13 10:03:27;;;;;;;1999.90;999.90;;;18.50;99.90;;;;;;4793343;29;20146;-73
2023/07/13 10:05:54;;;;;;;1999.90;999.90;;;18.60;99.90;;;;;;4808653;29;20080;-74
2023/07/13 10:08:32;;;;;;;1999.90;999.90;;;18.70;99.90;;;;;;4807465;29;20121;-72
2023/07/13 10:11:11;;;;;;;1999.90;999.90;;;18.80;99.90;;;;;;4778058;29;20579;-73
2023/07/13 10:13:45;;;;;;;1999.90;999.90;;;18.90;99.90;;;;;;4808353;29;20051;-70
2023/07/13 10:16:11;;;;;;;1999.90;999.90;;;19.00;99.90;;;;;;4792457;29;20097;-72
2023/07/13 10:18:53;;;;;;;1999.90;999.90;;;19.10;99.90;;;;;;4808388;29;20051;-72
2023/07/13 10:21:21;;;;;;;1999.90;999.90;;;19.20;99.90;;;;;;4808897;29;20061;-73
2023/07/13 10:24:24;;;;;;;1999.90;999.90;;;19.30;99.90;;;;;;4792707;29;20058;-71
2023/07/13 10:27:11;;;;;;;1999.90;999.90;;;19.30;99.90;;;;;;4807811;29;20066;-74
2023/07/13 10:29:48;;;;;;;1999.90;999.90;;;19.30;99.90;;;;;;4806168;29;20058;-73
2023/07/13 10:32:14;;;;;;;1999.90;999.90;;;19.30;99.90;;;;;;4808912;29;20125;-73
2023/07/13 10:34:45;;;;;;;1999.90;999.90;;;19.40;99.90;;;;;;4807094;29;20057;-74
2023/07/13 10:37:25;;;;;;;1999.90;999.90;;;19.40;99.90;;;;;;4808882;29;20047;-73
2023/07/13 10:39:55;;;;;;;1999.90;999.90;;;19.30;99.90;;;;;;4806760;29;20069;-74
2023/07/13 10:42:43;;;;;;;1999.90;999.90;;;19.30;99.90;;;;;;4807999;29;20050;-73
2023/07/13 10:45:18;;;;;;;1999.90;999.90;;;19.30;99.90;;;;;;4808078;29;20404;-70
2023/07/13 10:47:45;;;;;;;1999.90;999.90;;;19.30;99.90;;;;;;4808092;29;20105;-70
2023/07/13 10:50:24;;;;;;;1999.90;999.90;;;19.40;99.90;;;;;;4806643;29;20107;-70
2023/07/13 10:53:03;;;;;;;1999.90;999.90;;;19.40;99.90;;;;;;4807753;29;20063;-70
2023/07/13 10:55:42;;;;;;;1999.90;999.90;;;19.40;99.90;;;;;;4807004;29;20050;-70
2023/07/13 10:58:19;;;;;;;1999.90;999.90;;;19.50;99.90;;;;;;4822857;29;20093;-69
2023/07/13 11:01:15;;;;;;;1999.90;999.90;;;19.50;99.90;;;;;;4809349;29;20145;-71
2023/07/13 11:03:50;;;;;;;1999.90;999.90;;;19.60;99.90;;;;;;4806245;29;20054;-70
2023/07/13 11:06:17;;;;;;;1999.90;999.90;;;19.60;99.90;;;;;;4807729;29;20111;-70
2023/07/13 11:08:46;;;;;;;1999.90;999.90;;;19.70;99.90;;;;;;4807687;29;20082;-74
2023/07/13 11:11:27;;;;;;;1999.90;999.90;;;19.70;99.90;;;;;;4806983;29;20051;-75
2023/07/13 11:13:53;;;;;;;1999.90;999.90;;;19.70;99.90;;;;;;4807050;29;20059;-77
2023/07/13 11:16:24;;;;;;;1999.90;999.90;;;19.70;99.90;;;;;;4806337;29;20083;-73
2023/07/13 11:19:00;;;;;;;1999.90;999.90;;;19.80;99.90;;;;;;4807485;29;20498;-74
2023/07/13 11:21:28;;;;;;;1999.90;999.90;;;19.80;99.90;;;;;;4807168;29;20050;-75
2023/07/13 11:24:12;;;;;;;1999.90;999.90;;;19.90;99.90;;;;;;4806820;29;20058;-75
2023/07/13 11:26:43;;;;;;;1999.90;999.90;;;20.10;99.90;;;;;;4806817;29;20072;-72
2023/07/13 11:29:28;;;;;;;1999.90;999.90;;;20.10;99.90;;;;;;4808757;29;20115;-74
2023/07/13 11:31:56;;;;;;;1999.90;999.90;;;20.20;99.90;;;;;;4822466;29;20364;-69
2023/07/13 11:34:41;;;;;;;1999.90;999.90;;;20.30;99.90;;;;;;4821499;29;20063;-71
2023/07/13 11:37:18;;;;;;;1999.90;999.90;;;20.40;99.90;;;;;;4806503;29;20050;-70
2023/07/13 11:39:46;;;;;;;1999.90;999.90;;;20.40;99.90;;;;;;4807032;29;20054;-70
2023/07/13 11:42:15;;;;;;;1999.90;999.90;;;20.50;99.90;;;;;;4821279;29;20108;-69
2023/07/13 11:44:45;;;;;;;1999.90;999.90;;;20.50;99.90;;;;;;4807073;29;20047;-70
2023/07/13 11:47:20;;;;;;;1999.90;999.90;;;20.50;99.90;;;;;;4807420;29;20055;-70
2023/07/13 11:49:52;;;;;;;1999.90;999.90;;;20.50;99.90;;;;;;4807009;29;20129;-70
2023/07/13 11:52:22;;;;;;;1999.90;999.90;;;20.50;99.90;;;;;;4806965;29;20054;-74
2023/07/13 11:54:55;;;;;;;1999.90;999.90;;;20.60;99.90;;;;;;4805891;29;20089;-75
2023/07/13 11:57:24;;;;;;;1999.90;999.90;;;20.60;99.90;;;;;;4806981;29;20070;-72
2023/07/13 11:59:52;;;;;;;1999.90;999.90;;;20.70;99.90;;;;;;4806156;29;20058;-71
2023/07/13 12:02:46;;;;;;;1999.90;999.90;;;20.70;99.90;;;;;;4806805;29;20131;-73
2023/07/13 12:05:14;;;;;;;1999.90;999.90;;;20.90;99.90;;;;;;4802924;29;20571;-72
2023/07/13 12:07:40;;;;;;;1999.90;999.90;;;21.00;99.90;;;;;;4805797;29;20138;-72